Time;durP1;ratioP1;P1;durP2;ratioP2;P2;SDS_P1;SDS_P2;PMS_P1;PMS_P2;Temp;Humidity;BMP_temperature;BMP_pressure;BME280_temperature;BME280_humidity;BME280_pressure;Samples;Min_cycle;Max_cycle;Signal;HPM_P1;HPM_P2
2022/11/17 00:00:03;;;;;;;26.70;23.20;;;8.40;99.90;;;;;;5052359;28;20503;-79
2022/11/17 00:02:35;;;;;;;27.83;23.25;;;8.40;99.90;;;;;;5040156;28;20028;-79
2022/11/17 00:05:39;;;;;;;27.90;22.30;;;8.40;99.90;;;;;;5047273;28;20048;-79
2022/11/17 00:08:27;;;;;;;26.08;22.50;;;8.40;99.90;;;;;;5045014;28;20048;-80
2022/11/17 00:11:02;;;;;;;27.65;22.70;;;8.40;99.90;;;;;;5057643;28;20032;-78
2022/11/17 00:16:17;;;;;;;26.77;22.05;;;8.40;99.90;;;;;;5053367;28;20167;-80
2022/11/17 00:21:28;;;;;;;26.13;22.02;;;8.50;99.90;;;;;;5061574;28;20163;-80
2022/11/17 00:23:55;;;;;;;23.08;20.63;;;8.50;99.90;;;;;;5057620;28;20056;-80
2022/11/17 00:26:27;;;;;;;25.75;22.70;;;8.50;99.90;;;;;;5036414;28;20449;-79
2022/11/17 00:28:54;;;;;;;26.30;21.83;;;8.60;99.90;;;;;;5036086;28;20063;-79
2022/11/17 00:34:28;;;;;;;25.25;20.52;;;8.60;99.90;;;;;;5062312;28;20524;-80
2022/11/17 00:37:00;;;;;;;23.83;20.80;;;8.60;99.90;;;;;;5053012;28;20041;-80
2022/11/17 00:39:26;;;;;;;24.25;20.13;;;8.60;99.90;;;;;;5057060;28;20044;-80
2022/11/17 00:41:52;;;;;;;25.00;20.00;;;8.60;99.90;;;;;;5056945;28;20573;-80
2022/11/17 00:44:17;;;;;;;22.33;19.92;;;8.70;99.90;;;;;;5057642;28;20036;-80
2022/11/17 00:46:43;;;;;;;21.35;19.02;;;8.70;99.90;;;;;;5072786;28;20474;-80
2022/11/17 00:49:15;;;;;;;27.05;18.98;;;8.70;99.90;;;;;;5055872;28;20506;-79
2022/11/17 00:51:40;;;;;;;22.80;18.40;;;8.70;99.90;;;;;;5067808;28;20403;-80
2022/11/17 00:54:10;;;;;;;24.60;19.38;;;8.70;99.90;;;;;;5072735;28;20036;-80
2022/11/17 00:56:36;;;;;;;19.80;17.67;;;8.70;99.90;;;;;;5052449;28;20032;-79
2022/11/17 00:59:02;;;;;;;20.50;18.30;;;8.70;99.90;;;;;;5060815;28;20127;-79
2022/11/17 01:01:30;;;;;;;19.85;17.77;;;8.70;99.90;;;;;;5061065;28;20040;-80
2022/11/17 01:04:07;;;;;;;20.15;18.00;;;8.80;99.90;;;;;;5053426;28;20074;-79
2022/11/17 01:06:45;;;;;;;20.00;16.83;;;8.90;99.90;;;;;;5050213;28;20487;-80
2022/11/17 01:09:22;;;;;;;18.88;16.60;;;8.90;99.90;;;;;;5059141;28;20449;-80
2022/11/17 01:11:49;;;;;;;19.83;17.73;;;8.80;99.90;;;;;;5056223;28;20498;-79
2022/11/17 01:14:24;;;;;;;19.08;17.08;;;8.90;99.90;;;;;;5079047;28;20386;-79
2022/11/17 01:16:50;;;;;;;19.45;17.35;;;8.80;99.90;;;;;;5081789;28;20418;-80
2022/11/17 01:19:17;;;;;;;21.75;17.20;;;8.80;99.90;;;;;;5063749;28;20036;-79
2022/11/17 01:21:43;;;;;;;19.70;17.30;;;8.90;99.90;;;;;;5077055;28;20033;-79
2022/11/17 01:24:13;;;;;;;20.88;18.33;;;8.90;99.90;;;;;;5054105;28;20049;-79
2022/11/17 01:26:43;;;;;;;20.35;17.13;;;8.90;99.90;;;;;;5050883;28;20128;-80
2022/11/17 01:29:12;;;;;;;20.17;17.88;;;8.80;99.90;;;;;;5058043;28;20036;-79
2022/11/17 01:31:42;;;;;;;20.83;17.45;;;8.80;99.90;;;;;;5068471;28;20445;-79
2022/11/17 01:34:16;;;;;;;19.92;17.23;;;8.90;99.90;;;;;;5059740;28;20043;-79
2022/11/17 01:39:40;;;;;;;22.90;17.52;;;8.90;99.90;;;;;;5072384;28;20051;-80
2022/11/17 01:42:30;;;;;;;21.98;17.95;;;8.80;99.90;;;;;;5064954;28;20407;-80
2022/11/17 01:45:37;;;;;;;18.50;16.55;;;8.80;99.90;;;;;;5076175;28;20044;-80
2022/11/17 01:48:44;;;;;;;21.60;18.38;;;8.90;99.90;;;;;;4989945;28;20054;-81
2022/11/17 01:51:15;;;;;;;21.38;19.02;;;8.80;99.90;;;;;;5040257;28;20064;-80
2022/11/17 01:53:46;;;;;;;24.73;21.35;;;8.80;99.90;;;;;;5054569;28;20039;-80
2022/11/17 01:56:16;;;;;;;25.25;20.42;;;8.70;99.90;;;;;;5058242;28;20071;-81
2022/11/17 01:58:50;;;;;;;23.00;20.13;;;8.70;99.90;;;;;;5057537;28;20041;-80
2022/11/17 02:01:19;;;;;;;25.10;20.45;;;8.70;99.90;;;;;;5056215;28;20040;-80
2022/11/17 02:03:47;;;;;;;27.55;22.17;;;8.60;99.90;;;;;;5055901;28;20438;-79
2022/11/17 02:06:31;;;;;;;27.42;21.80;;;8.60;99.90;;;;;;5075566;28;20037;-78
2022/11/17 02:08:56;;;;;;;;;;;8.50;99.90;;;;;;5057710;28;20079;-78
2022/11/17 02:11:23;;;;;;;26.92;20.65;;;8.50;99.90;;;;;;5056415;28;20420;-79
2022/11/17 02:13:53;;;;;;;27.15;20.85;;;8.50;99.90;;;;;;5057873;28;20044;-80
2022/11/17 02:16:19;;;;;;;28.23;21.40;;;8.50;99.90;;;;;;5057463;28;20102;-78
2022/11/17 02:18:46;;;;;;;24.95;20.58;;;8.50;99.90;;;;;;5056058;28;20490;-79
2022/11/17 02:21:46;;;;;;;26.63;20.83;;;8.50;99.90;;;;;;5072955;28;20036;-78
2022/11/17 02:24:49;;;;;;;27.83;21.55;;;8.50;99.90;;;;;;5072450;22;20044;-79
2022/11/17 02:27:44;;;;;;;25.83;20.98;;;8.50;99.90;;;;;;5067345;28;20041;-79
2022/11/17 02:30:14;;;;;;;26.85;21.20;;;8.50;99.90;;;;;;5069751;28;20043;-81
2022/11/17 02:32:58;;;;;;;31.20;23.42;;;8.50;99.90;;;;;;5056671;28;20359;-80
2022/11/17 02:35:35;;;;;;;25.70;20.55;;;8.40;99.90;;;;;;5083112;28;20068;-79
2022/11/17 02:38:12;;;;;;;27.60;22.02;;;8.40;99.90;;;;;;5078470;28;20094;-80
2022/11/17 02:40:50;;;;;;;28.58;21.42;;;8.40;99.90;;;;;;5076112;28;20044;-79
2022/11/17 02:46:06;;;;;;;29.05;21.70;;;8.40;99.90;;;;;;5085399;28;20501;-79
2022/11/17 02:48:39;;;;;;;27.83;20.40;;;8.30;99.90;;;;;;5072385;28;20076;-78
2022/11/17 02:51:10;;;;;;;30.73;23.08;;;8.50;99.90;;;;;;5056305;28;20494;-79
2022/11/17 02:53:37;;;;;;;31.35;23.55;;;8.40;99.90;;;;;;5072908;28;20410;-79
2022/11/17 02:56:03;;;;;;;32.95;22.35;;;8.40;99.90;;;;;;5081068;28;20036;-79
2022/11/17 02:58:28;;;;;;;34.08;23.25;;;8.40;99.90;;;;;;5065348;28;20069;-80
2022/11/17 03:01:14;;;;;;;28.85;21.88;;;8.40;99.90;;;;;;5062217;28;20072;-79
2022/11/17 03:03:55;;;;;;;31.00;22.30;;;8.40;99.90;;;;;;5074738;28;20448;-79
2022/11/17 03:06:36;;;;;;;30.90;21.95;;;8.40;99.90;;;;;;5063725;28;20471;-79
2022/11/17 03:09:17;;;;;;;30.17;22.83;;;8.40;99.90;;;;;;5072094;28;20045;-79
2022/11/17 03:11:56;;;;;;;31.02;21.63;;;8.40;99.90;;;;;;5072995;28;20090;-79
2022/11/17 03:14:38;;;;;;;38.42;23.05;;;8.40;99.90;;;;;;5089305;28;20032;-79
2022/11/17 03:17:15;;;;;;;40.88;23.73;;;8.40;99.90;;;;;;5075709;28;20390;-79
2022/11/17 03:19:46;;;;;;;42.38;23.10;;;8.40;99.90;;;;;;5067072;28;20028;-79
2022/11/17 03:22:23;;;;;;;33.10;21.58;;;8.30;99.90;;;;;;5075021;28;20068;-79
2022/11/17 03:24:56;;;;;;;28.13;20.40;;;8.40;99.90;;;;;;5077612;28;20040;-80
2022/11/17 03:27:45;;;;;;;28.60;20.70;;;8.40;99.90;;;;;;5072672;28;20085;-80
2022/11/17 03:30:11;;;;;;;24.60;19.30;;;8.40;99.90;;;;;;5090179;28;20036;-78
2022/11/17 03:32:40;;;;;;;25.83;19.90;;;8.50;99.90;;;;;;5088497;28;20123;-78
2022/11/17 03:35:18;;;;;;;35.13;20.77;;;8.50;99.90;;;;;;5063510;28;20033;-78
2022/11/17 03:37:49;;;;;;;30.23;20.17;;;8.50;99.90;;;;;;5054908;28;20040;-78
2022/11/17 03:40:19;;;;;;;23.92;17.08;;;8.50;99.90;;;;;;5073143;28;20466;-78
2022/11/17 03:42:52;;;;;;;24.17;18.25;;;8.50;99.90;;;;;;5074004;28;20496;-77
2022/11/17 03:45:20;;;;;;;;;;;8.50;99.90;;;;;;5081827;28;20032;-78
2022/11/17 03:47:50;;;;;;;34.15;18.70;;;8.50;99.90;;;;;;5061854;28;19927;-79
2022/11/17 03:50:38;;;;;;;24.33;18.88;;;8.50;99.90;;;;;;5054971;28;20040;-79
2022/11/17 03:53:05;;;;;;;29.67;20.10;;;8.50;99.90;;;;;;5055006;28;20048;-79
2022/11/17 03:55:43;;;;;;;24.38;17.75;;;8.50;99.90;;;;;;5082129;28;20040;-78
2022/11/17 03:58:14;;;;;;;24.08;18.92;;;8.50;99.90;;;;;;5082887;28;20040;-78
2022/11/17 04:00:41;;;;;;;23.30;18.27;;;8.50;99.90;;;;;;5091448;28;20043;-78
2022/11/17 04:03:07;;;;;;;42.10;21.92;;;8.60;99.90;;;;;;5091807;28;20044;-78
2022/11/17 04:05:33;;;;;;;25.30;18.02;;;8.50;99.90;;;;;;5064482;28;20024;-78
2022/11/17 04:07:59;;;;;;;25.63;19.02;;;8.50;99.90;;;;;;5059104;28;20082;-78
2022/11/17 04:10:25;;;;;;;29.73;20.45;;;8.50;99.90;;;;;;5065153;28;20641;-79
2022/11/17 04:18:22;;;;;;;26.55;17.48;;;8.50;99.90;;;;;;5073708;28;20506;-79
2022/11/17 04:20:52;;;;;;;23.17;16.58;;;8.50;99.90;;;;;;5084779;28;20113;-78
2022/11/17 04:23:18;;;;;;;29.67;18.65;;;8.50;99.90;;;;;;5057955;28;20500;-78
2022/11/17 04:28:35;;;;;;;23.67;17.27;;;8.50;99.90;;;;;;5074655;28;20094;-79
2022/11/17 04:31:06;;;;;;;21.77;16.45;;;8.50;99.90;;;;;;5091013;28;20040;-79
2022/11/17 04:33:31;;;;;;;19.50;15.45;;;8.50;99.90;;;;;;5090452;28;20040;-79
2022/11/17 04:35:57;;;;;;;29.30;16.92;;;8.50;99.90;;;;;;5063735;28;20040;-79
2022/11/17 04:38:23;;;;;;;20.00;15.82;;;8.50;99.90;;;;;;5076858;28;20040;-80
2022/11/17 04:43:32;;;;;;;27.33;18.17;;;8.50;99.90;;;;;;5095467;28;20043;-78
2022/11/17 04:46:01;;;;;;;27.05;17.27;;;8.50;99.90;;;;;;5070859;28;20036;-79
2022/11/17 04:48:27;;;;;;;24.95;16.52;;;8.50;99.90;;;;;;5087166;28;20039;-79
2022/11/17 04:50:54;;;;;;;20.83;16.27;;;8.50;99.90;;;;;;5065590;28;20094;-79
2022/11/17 04:53:20;;;;;;;22.30;17.10;;;8.50;99.90;;;;;;5059090;28;20039;-78
2022/11/17 04:55:46;;;;;;;19.98;15.65;;;8.50;99.90;;;;;;5064047;28;20036;-79
2022/11/17 04:58:11;;;;;;;21.08;15.23;;;8.60;99.90;;;;;;5075471;28;20040;-78
2022/11/17 05:00:37;;;;;;;19.58;14.98;;;8.60;99.90;;;;;;5073861;28;20051;-81
2022/11/17 05:03:03;;;;;;;24.50;16.85;;;8.50;99.90;;;;;;5057716;28;20044;-81
2022/11/17 05:05:29;;;;;;;22.85;16.45;;;8.50;99.90;;;;;;5066835;28;20468;-79
2022/11/17 05:07:54;;;;;;;23.60;16.05;;;8.50;99.90;;;;;;5063228;28;20050;-80
2022/11/17 05:13:20;;;;;;;28.13;17.30;;;8.50;99.90;;;;;;5067716;28;20065;-79
2022/11/17 05:13:26;;;;;;;20.70;15.40;;;8.60;99.90;;;;;;5090935;28;20525;-79
2022/11/17 05:18:38;;;;;;;24.77;17.50;;;8.60;99.90;;;;;;5073886;28;20052;-79
2022/11/17 05:21:06;;;;;;;21.77;15.73;;;8.50;99.90;;;;;;5057272;28;20050;-78
2022/11/17 05:26:16;;;;;;;18.40;15.30;;;8.50;99.90;;;;;;5076173;28;20044;-78
2022/11/17 05:28:42;;;;;;;19.42;14.63;;;8.40;99.90;;;;;;5073449;28;20402;-78
2022/11/17 05:31:08;;;;;;;18.13;14.05;;;8.40;99.90;;;;;;5072054;28;20469;-77
2022/11/17 05:33:34;;;;;;;17.05;13.63;;;8.40;99.90;;;;;;5084363;28;20402;-78
2022/11/17 05:35:59;;;;;;;15.95;13.60;;;8.40;99.90;;;;;;5068964;28;20036;-78
2022/11/17 05:38:25;;;;;;;19.50;15.07;;;8.40;99.90;;;;;;5081038;28;20063;-79
2022/11/17 05:40:50;;;;;;;19.73;14.30;;;8.40;99.90;;;;;;5080160;28;20036;-80
2022/11/17 05:43:16;;;;;;;16.70;14.40;;;8.40;99.90;;;;;;5056504;28;20051;-79
2022/11/17 05:45:44;;;;;;;17.63;14.40;;;8.40;99.90;;;;;;5082896;28;20032;-80
2022/11/17 05:48:10;;;;;;;16.25;12.90;;;8.30;99.90;;;;;;5068099;28;20071;-78
2022/11/17 05:50:35;;;;;;;16.25;13.88;;;8.30;99.90;;;;;;5083431;28;20453;-78
2022/11/17 05:53:01;;;;;;;14.60;13.05;;;8.30;99.90;;;;;;5061530;28;20096;-79
2022/11/17 05:55:26;;;;;;;19.98;15.10;;;8.30;99.90;;;;;;5082928;28;20082;-78
2022/11/17 05:57:55;;;;;;;15.55;13.80;;;8.30;99.90;;;;;;5064942;28;20068;-79
2022/11/17 06:00:20;;;;;;;16.40;13.90;;;8.30;99.90;;;;;;5087644;28;20485;-79
2022/11/17 06:02:50;;;;;;;14.05;12.55;;;8.20;99.90;;;;;;5086119;28;20118;-78
2022/11/17 06:05:16;;;;;;;15.10;12.80;;;8.20;99.90;;;;;;5081856;28;20037;-79
2022/11/17 06:07:42;;;;;;;15.23;13.63;;;8.20;99.90;;;;;;5068821;28;20538;-79
2022/11/17 06:10:08;;;;;;;15.52;12.95;;;8.20;99.90;;;;;;5085760;28;20482;-79
2022/11/17 06:12:34;;;;;;;14.45;12.75;;;8.10;99.90;;;;;;5071449;28;20035;-81
2022/11/17 06:15:00;;;;;;;15.82;13.70;;;8.10;99.90;;;;;;5063397;28;20047;-79
2022/11/17 06:17:36;;;;;;;14.70;12.73;;;8.10;99.90;;;;;;5069721;28;20035;-79
2022/11/17 06:20:11;;;;;;;14.95;13.38;;;8.10;99.90;;;;;;5069450;28;20044;-78
2022/11/17 06:22:37;;;;;;;17.50;14.73;;;8.10;99.90;;;;;;5068696;28;20041;-78
2022/11/17 06:25:04;;;;;;;15.35;13.23;;;8.00;99.90;;;;;;5085737;28;20042;-78
2022/11/17 06:27:31;;;;;;;14.23;12.75;;;8.00;99.90;;;;;;5082698;28;20041;-76
2022/11/17 06:30:00;;;;;;;14.52;13.13;;;8.00;99.90;;;;;;5078867;28;20081;-77
2022/11/17 06:32:27;;;;;;;16.35;14.50;;;7.90;99.90;;;;;;5056842;28;20045;-77
2022/11/17 06:34:52;;;;;;;16.85;15.15;;;8.00;99.90;;;;;;5066226;28;20088;-76
2022/11/17 06:37:18;;;;;;;16.88;15.07;;;7.90;99.90;;;;;;5082538;28;20029;-76
2022/11/17 06:39:44;;;;;;;16.88;15.07;;;7.90;99.90;;;;;;5079329;28;20046;-76
2022/11/17 06:42:09;;;;;;;15.77;14.18;;;7.90;99.90;;;;;;5056411;28;20599;-75
2022/11/17 06:44:35;;;;;;;15.25;13.65;;;7.90;99.90;;;;;;5085727;28;20039;-76
2022/11/17 06:47:01;;;;;;;16.83;15.02;;;7.90;99.90;;;;;;5083828;28;20033;-76
2022/11/17 06:49:27;;;;;;;15.88;14.23;;;7.90;99.90;;;;;;5073872;28;20081;-76
2022/11/17 06:51:52;;;;;;;16.13;14.43;;;8.00;99.90;;;;;;5075126;28;20398;-76
2022/11/17 06:54:18;;;;;;;14.60;13.07;;;8.00;99.90;;;;;;5057729;28;20040;-78
2022/11/17 06:56:44;;;;;;;15.43;13.88;;;8.00;99.90;;;;;;5076028;28;20044;-78
2022/11/17 06:59:09;;;;;;;15.75;14.15;;;8.10;99.90;;;;;;5063669;28;20521;-76
2022/11/17 07:01:36;;;;;;;16.00;14.30;;;8.10;99.90;;;;;;5067707;28;20410;-77
2022/11/17 07:04:02;;;;;;;16.98;15.20;;;8.10;99.90;;;;;;5088066;28;20032;-78
2022/11/17 07:06:28;;;;;;;17.30;15.48;;;8.10;99.90;;;;;;5081054;28;20024;-77
2022/11/17 07:08:53;;;;;;;18.80;16.85;;;8.10;99.90;;;;;;5070909;28;20043;-76
2022/11/17 07:11:19;;;;;;;17.20;15.50;;;8.10;99.90;;;;;;5060286;28;20119;-77
2022/11/17 07:13:45;;;;;;;19.02;16.73;;;8.00;99.90;;;;;;5090090;28;20032;-77
2022/11/17 07:16:13;;;;;;;20.45;17.55;;;8.00;99.90;;;;;;5077871;28;20090;-77
2022/11/17 07:18:42;;;;;;;18.25;16.35;;;8.00;99.90;;;;;;5082525;28;20472;-77
2022/11/17 07:21:10;;;;;;;17.15;14.40;;;8.00;99.90;;;;;;5059900;28;20037;-77
2022/11/17 07:23:37;;;;;;;16.75;14.98;;;8.10;99.90;;;;;;5075841;28;20032;-76
2022/11/17 07:26:03;;;;;;;17.35;14.65;;;8.10;99.90;;;;;;5087140;28;20488;-77
2022/11/17 07:28:29;;;;;;;17.52;15.68;;;8.10;99.90;;;;;;5070278;28;20124;-77
2022/11/17 07:31:00;;;;;;;17.58;15.52;;;8.10;99.90;;;;;;5054561;28;20115;-77
2022/11/17 07:33:26;;;;;;;17.38;15.57;;;8.10;99.90;;;;;;5070911;28;20033;-77
2022/11/17 07:35:51;;;;;;;17.65;15.75;;;8.10;99.90;;;;;;5054712;28;20036;-78
2022/11/17 07:38:17;;;;;;;25.10;17.48;;;8.10;99.90;;;;;;5070529;28;20439;-78
2022/11/17 07:40:43;;;;;;;17.35;14.85;;;8.00;99.90;;;;;;5054178;28;20494;-78
2022/11/17 07:43:08;;;;;;;17.92;14.82;;;8.10;99.90;;;;;;5070724;28;20040;-79
2022/11/17 07:45:35;;;;;;;18.63;15.95;;;8.00;99.90;;;;;;5070867;28;20046;-78
2022/11/17 07:48:03;;;;;;;17.15;15.10;;;8.00;99.90;;;;;;5070937;28;20418;-78
2022/11/17 07:50:28;;;;;;;16.70;14.90;;;8.00;99.90;;;;;;5054119;28;20036;-78
2022/11/17 07:52:55;;;;;;;22.90;17.10;;;8.00;99.90;;;;;;5054139;28;20048;-78
2022/11/17 07:55:22;;;;;;;16.95;15.15;;;8.00;99.90;;;;;;5070601;28;20044;-78
2022/11/17 07:57:57;;;;;;;18.02;16.13;;;8.00;99.90;;;;;;5070337;28;20036;-77
2022/11/17 08:00:23;;;;;;;17.02;15.30;;;8.00;99.90;;;;;;5070681;28;20082;-77
2022/11/17 08:02:49;;;;;;;15.88;14.27;;;8.00;99.90;;;;;;5070470;28;20041;-78
2022/11/17 08:05:17;;;;;;;16.77;14.73;;;8.00;99.90;;;;;;5070445;28;20067;-77
2022/11/17 08:07:54;;;;;;;21.95;17.30;;;8.00;99.90;;;;;;5069705;28;20041;-78
2022/11/17 08:10:20;;;;;;;21.48;17.60;;;8.00;99.90;;;;;;5053912;28;20520;-78
2022/11/17 08:12:49;;;;;;;22.23;16.25;;;7.90;99.90;;;;;;5053699;28;20036;-78
2022/11/17 08:15:14;;;;;;;18.30;16.20;;;7.90;99.90;;;;;;5070641;28;20127;-76
2022/11/17 08:17:40;;;;;;;17.25;15.40;;;7.90;99.90;;;;;;5053577;28;20132;-78
2022/11/17 08:20:06;;;;;;;17.65;14.85;;;7.90;99.90;;;;;;5070379;28;20410;-78
2022/11/17 08:22:35;;;;;;;23.30;16.95;;;8.00;99.90;;;;;;5085255;22;20499;-78
2022/11/17 08:25:02;;;;;;;25.45;18.02;;;8.00;99.90;;;;;;5041033;28;20040;-79
2022/11/17 08:27:29;;;;;;;38.15;19.55;;;8.00;99.90;;;;;;5041191;28;20028;-79
2022/11/17 08:29:55;;;;;;;26.77;18.63;;;7.90;99.90;;;;;;5041689;28;20482;-79
2022/11/17 08:32:23;;;;;;;40.20;21.20;;;8.00;99.90;;;;;;5027435;28;20115;-79
2022/11/17 08:34:50;;;;;;;43.15;21.15;;;8.00;99.90;;;;;;5062812;28;20524;-79
2022/11/17 08:37:16;;;;;;;44.22;21.52;;;7.90;99.90;;;;;;5062103;28;20097;-79
2022/11/17 08:39:48;;;;;;;30.73;19.48;;;8.00;99.90;;;;;;5063562;28;20028;-79
2022/11/17 08:42:16;;;;;;;33.30;20.70;;;8.00;99.90;;;;;;5062713;28;20103;-79
2022/11/17 08:44:42;;;;;;;23.17;18.90;;;8.00;99.90;;;;;;5064478;28;20032;-79
2022/11/17 08:47:08;;;;;;;38.35;22.05;;;8.00;99.90;;;;;;5064195;28;20044;-79
2022/11/17 08:49:41;;;;;;;28.88;20.27;;;8.10;99.90;;;;;;5064270;28;20043;-79
2022/11/17 08:52:07;;;;;;;22.48;17.80;;;8.20;99.90;;;;;;5062303;28;20087;-78
2022/11/17 08:54:33;;;;;;;25.65;18.00;;;8.20;99.90;;;;;;5061708;28;20083;-79
2022/11/17 08:56:59;;;;;;;34.28;19.33;;;8.30;99.90;;;;;;5060069;28;20060;-78
2022/11/17 08:59:28;;;;;;;25.52;19.65;;;8.30;99.90;;;;;;5045465;28;20083;-78
2022/11/17 09:01:57;;;;;;;22.02;18.45;;;8.30;99.90;;;;;;5061101;28;20411;-79
2022/11/17 09:04:23;;;;;;;35.65;19.35;;;8.40;99.90;;;;;;5060442;28;20036;-79
2022/11/17 09:06:53;;;;;;;22.45;18.00;;;8.40;99.90;;;;;;5059824;28;20123;-78
2022/11/17 09:09:19;;;;;;;31.90;20.45;;;8.50;99.90;;;;;;5060115;28;20043;-79
2022/11/17 09:11:45;;;;;;;26.08;17.67;;;8.50;99.90;;;;;;5060298;28;20047;-79
2022/11/17 09:14:13;;;;;;;27.95;18.95;;;8.50;99.90;;;;;;5059256;28;20036;-79
2022/11/17 09:16:39;;;;;;;31.42;19.00;;;8.50;99.90;;;;;;5059779;28;20047;-79
2022/11/17 09:19:05;;;;;;;29.63;19.92;;;8.60;99.90;;;;;;5060420;28;20408;-79
2022/11/17 09:21:36;;;;;;;42.53;21.40;;;8.60;99.90;;;;;;5062800;28;20052;-79
2022/11/17 09:24:01;;;;;;;45.25;20.60;;;8.60;99.90;;;;;;5062362;28;20039;-79
2022/11/17 09:26:27;;;;;;;27.10;18.00;;;8.60;99.90;;;;;;5061902;28;20559;-79
2022/11/17 09:28:57;;;;;;;26.27;16.73;;;8.60;99.90;;;;;;5062245;28;20070;-79
2022/11/17 09:31:24;;;;;;;28.70;18.20;;;8.60;99.90;;;;;;5064069;28;20068;-78
2022/11/17 09:33:53;;;;;;;22.25;16.83;;;8.70;99.90;;;;;;5066397;28;20040;-79
2022/11/17 09:36:20;;;;;;;20.95;15.43;;;8.70;99.90;;;;;;5064907;28;20043;-79
2022/11/17 09:38:47;;;;;;;27.13;17.65;;;8.70;99.90;;;;;;5066869;28;20054;-78
2022/11/17 09:41:38;;;;;;;50.22;20.02;;;8.80;99.90;;;;;;5063945;28;20403;-78
2022/11/17 09:44:23;;;;;;;26.17;16.92;;;8.80;99.90;;;;;;5060511;28;20048;-79
2022/11/17 09:47:11;;;;;;;21.23;15.77;;;8.80;99.90;;;;;;5061776;28;20036;-79
2022/11/17 09:49:52;;;;;;;27.40;17.73;;;8.80;99.90;;;;;;5059753;28;20525;-79
2022/11/17 09:52:36;;;;;;;27.10;16.77;;;8.80;99.90;;;;;;5060651;28;20117;-79
2022/11/17 09:55:31;;;;;;;26.35;16.88;;;8.90;99.90;;;;;;5060800;28;20047;-78
2022/11/17 09:58:07;;;;;;;24.25;16.10;;;8.90;99.90;;;;;;5060652;28;20476;-78
2022/11/17 10:00:39;;;;;;;31.42;18.05;;;9.00;99.90;;;;;;5060830;28;20035;-79
2022/11/17 10:03:39;;;;;;;24.25;15.77;;;8.90;99.90;;;;;;5061062;28;20048;-78
2022/11/17 10:06:27;;;;;;;22.17;15.52;;;9.00;99.90;;;;;;5058991;28;20139;-79
2022/11/17 10:09:15;;;;;;;23.85;15.23;;;9.00;99.90;;;;;;5059926;28;20120;-79
2022/11/17 10:11:42;;;;;;;23.50;15.35;;;9.10;99.90;;;;;;5060434;28;20128;-79
2022/11/17 10:14:11;;;;;;;22.42;16.55;;;9.20;99.90;;;;;;5060591;28;20044;-79
2022/11/17 10:16:42;;;;;;;23.55;16.05;;;9.10;99.90;;;;;;5069405;28;20059;-79
2022/11/17 10:19:20;;;;;;;18.20;14.98;;;9.20;99.90;;;;;;5074437;28;20050;-78
2022/11/17 10:21:53;;;;;;;16.70;14.93;;;9.20;99.90;;;;;;5068106;28;20089;-78
2022/11/17 10:24:49;;;;;;;18.40;14.13;;;9.20;99.90;;;;;;5066107;28;20075;-79
2022/11/17 10:27:30;;;;;;;25.38;15.77;;;9.30;99.90;;;;;;5063386;28;20048;-79
2022/11/17 10:29:56;;;;;;;32.80;17.60;;;9.30;99.90;;;;;;5064612;28;20032;-79
2022/11/17 10:32:31;;;;;;;17.35;14.18;;;9.30;99.90;;;;;;5064139;28;20051;-79
2022/11/17 10:35:14;;;;;;;26.80;17.35;;;9.40;99.90;;;;;;5065287;28;20139;-79
2022/11/17 10:37:54;;;;;;;22.73;15.15;;;9.40;99.90;;;;;;5064097;28;20050;-78
2022/11/17 10:40:30;;;;;;;17.60;12.75;;;9.40;99.90;;;;;;5064502;28;20044;-78
2022/11/17 10:43:00;;;;;;;21.95;13.65;;;9.50;99.90;;;;;;5064871;28;20119;-78
2022/11/17 10:45:27;;;;;;;17.33;11.93;;;9.60;99.90;;;;;;5064208;28;20446;-78
2022/11/17 10:48:15;;;;;;;20.50;13.20;;;9.60;99.90;;;;;;5063549;28;20032;-78
2022/11/17 10:50:53;;;;;;;22.65;10.23;;;9.60;99.90;;;;;;5064758;28;20508;-79
2022/11/17 10:53:31;;;;;;;18.00;9.13;;;9.70;99.90;;;;;;5063882;28;20453;-78
2022/11/17 10:56:10;;;;;;;13.38;7.07;;;9.70;99.90;;;;;;5063751;28;20050;-78
2022/11/17 10:59:10;;;;;;;10.70;6.18;;;9.70;99.90;;;;;;5062987;28;20044;-78
2022/11/17 11:01:39;;;;;;;9.52;5.60;;;9.80;99.90;;;;;;5063458;28;20490;-78
2022/11/17 11:04:28;;;;;;;17.52;4.60;;;9.90;99.90;;;;;;5062262;28;20040;-78
2022/11/17 11:07:18;;;;;;;9.25;3.88;;;9.90;99.90;;;;;;5061284;28;20079;-78
2022/11/17 11:10:12;;;;;;;6.00;2.95;;;9.90;99.90;;;;;;5061816;28;20036;-79
2022/11/17 11:13:02;;;;;;;5.25;2.42;;;9.90;99.90;;;;;;5061993;28;20028;-79
2022/11/17 11:15:33;;;;;;;7.43;2.63;;;9.90;99.90;;;;;;5061686;28;20046;-78
2022/11/17 11:18:02;;;;;;;7.60;2.58;;;9.90;99.90;;;;;;5059784;28;20052;-78
2022/11/17 11:20:56;;;;;;;6.32;2.53;;;10.00;99.90;;;;;;5060712;28;20481;-79
2022/11/17 11:23:37;;;;;;;5.55;2.28;;;10.00;99.90;;;;;;5060563;28;20040;-79
2022/11/17 11:26:31;;;;;;;6.18;1.85;;;10.00;99.90;;;;;;5059755;28;20460;-79
2022/11/17 11:29:26;;;;;;;6.65;2.20;;;10.00;99.90;;;;;;5060024;28;20051;-79
2022/11/17 11:32:22;;;;;;;5.78;1.85;;;10.00;99.90;;;;;;5059605;28;20036;-78
2022/11/17 11:35:27;;;;;;;5.88;1.90;;;10.00;99.90;;;;;;5042403;28;20406;-78
2022/11/17 11:38:15;;;;;;;4.22;2.05;;;9.90;99.90;;;;;;5059031;28;20093;-78
2022/11/17 11:40:49;;;;;;;5.63;1.90;;;10.00;99.90;;;;;;5058675;28;20513;-78
2022/11/17 11:43:46;;;;;;;9.75;3.40;;;10.00;99.90;;;;;;5058797;28;20051;-78
2022/11/17 11:46:21;;;;;;;4.55;2.15;;;10.10;99.90;;;;;;5058949;28;20044;-79
2022/11/17 11:48:52;;;;;;;4.20;2.08;;;10.20;99.90;;;;;;5058577;28;20357;-78
2022/11/17 11:51:27;;;;;;;3.67;1.70;;;10.20;99.90;;;;;;5058563;28;20036;-79
2022/11/17 11:54:02;;;;;;;5.97;2.20;;;10.20;99.90;;;;;;5058782;28;20123;-78
2022/11/17 11:56:44;;;;;;;5.20;2.00;;;10.20;99.90;;;;;;5076231;28;20051;-78
2022/11/17 11:59:30;;;;;;;5.18;1.70;;;10.20;99.90;;;;;;5059546;28;20042;-78
2022/11/17 12:02:09;;;;;;;4.13;2.03;;;10.20;99.90;;;;;;5059664;28;20606;-78
2022/11/17 12:04:58;;;;;;;6.18;2.33;;;10.10;99.90;;;;;;5058779;28;20036;-78
2022/11/17 12:07:48;;;;;;;5.25;1.83;;;10.00;99.90;;;;;;5059070;28;20040;-78
2022/11/17 12:10:26;;;;;;;2.33;1.50;;;10.00;99.90;;;;;;5059661;28;20097;-78
2022/11/17 12:12:52;;;;;;;3.85;1.60;;;10.00;99.90;;;;;;5059045;28;20489;-79
2022/11/17 12:15:18;;;;;;;4.28;1.83;;;10.00;99.90;;;;;;5058230;28;20088;-78
2022/11/17 12:17:51;;;;;;;5.05;1.92;;;9.90;99.90;;;;;;5058452;28;20040;-78
2022/11/17 12:20:32;;;;;;;5.33;2.57;;;9.90;99.90;;;;;;5058739;28;20059;-78
2022/11/17 12:23:20;;;;;;;4.35;2.00;;;9.90;99.90;;;;;;5058725;28;20145;-79
2022/11/17 12:25:52;;;;;;;3.25;1.65;;;9.90;99.90;;;;;;5058429;28;20033;-79
2022/11/17 12:28:29;;;;;;;6.25;2.15;;;10.00;99.90;;;;;;5058473;28;20043;-79
2022/11/17 12:30:58;;;;;;;5.45;1.92;;;10.00;99.90;;;;;;5058272;28;20048;-79
2022/11/17 12:33:52;;;;;;;8.48;2.15;;;10.00;99.90;;;;;;5058405;28;20036;-78
2022/11/17 12:36:25;;;;;;;5.63;1.95;;;10.00;99.90;;;;;;5058249;28;20047;-79
2022/11/17 12:38:53;;;;;;;7.85;2.40;;;10.00;99.90;;;;;;5057877;28;20040;-78
2022/11/17 12:41:47;;;;;;;4.93;2.00;;;10.00;99.90;;;;;;5058643;28;20394;-79
2022/11/17 12:44:40;;;;;;;5.93;1.70;;;10.00;99.90;;;;;;5058221;28;20048;-79
2022/11/17 12:47:19;;;;;;;4.28;2.05;;;10.00;99.90;;;;;;5058159;28;20048;-79
2022/11/17 12:50:07;;;;;;;6.85;2.17;;;10.00;99.90;;;;;;5058488;28;20043;-79
2022/11/17 12:52:42;;;;;;;4.55;1.60;;;10.00;99.90;;;;;;5058293;28;20389;-79
2022/11/17 12:55:14;;;;;;;6.20;1.83;;;10.00;99.90;;;;;;5061154;28;20506;-78
2022/11/17 12:57:44;;;;;;;5.28;2.08;;;10.00;99.90;;;;;;5062019;28;20044;-79
2022/11/17 13:00:18;;;;;;;4.90;2.50;;;10.10;99.90;;;;;;5061960;28;20046;-78
2022/11/17 13:03:06;;;;;;;6.90;2.28;;;10.00;99.90;;;;;;5062088;28;20040;-78
2022/11/17 13:05:32;;;;;;;6.80;2.45;;;10.00;99.90;;;;;;5062021;28;20459;-78
2022/11/17 13:08:14;;;;;;;3.50;2.72;;;10.00;99.90;;;;;;5066254;28;20032;-78
2022/11/17 13:10:40;;;;;;;6.43;2.50;;;10.00;99.90;;;;;;5073479;28;20047;-78
2022/11/17 13:13:12;;;;;;;3.72;2.10;;;9.90;99.90;;;;;;5065540;28;20078;-78
2022/11/17 13:15:40;;;;;;;7.82;2.50;;;9.90;99.90;;;;;;5065232;28;20636;-78
2022/11/17 13:18:29;;;;;;;6.63;2.42;;;10.00;99.90;;;;;;5066018;28;20036;-78
2022/11/17 13:20:56;;;;;;;4.65;2.42;;;10.00;99.90;;;;;;5065738;28;20101;-78
2022/11/17 13:23:25;;;;;;;7.75;2.70;;;10.00;99.90;;;;;;5065201;28;20035;-78
2022/11/17 13:26:11;;;;;;;4.20;2.40;;;10.00;99.90;;;;;;5065144;28;20040;-78
2022/11/17 13:28:37;;;;;;;8.75;2.40;;;10.00;99.90;;;;;;5065453;28;20413;-79
2022/11/17 13:31:04;;;;;;;5.60;2.13;;;10.00;99.90;;;;;;5065658;28;20066;-79
2022/11/17 13:33:33;;;;;;;5.80;1.83;;;10.00;99.90;;;;;;5065786;28;20486;-79
2022/11/17 13:36:19;;;;;;;6.38;2.17;;;10.00;99.90;;;;;;5064572;28;20094;-78
2022/11/17 13:38:50;;;;;;;3.20;1.90;;;10.00;99.90;;;;;;5064150;28;20035;-78